Time;durP1;ratioP1;P1;durP2;ratioP2;P2;SDS_P1;SDS_P2;PMS_P1;PMS_P2;Temp;Humidity;BMP_temperature;BMP_pressure;BME280_temperature;BME280_humidity;BME280_pressure;Samples;Min_cycle;Max_cycle;Signal;HPM_P1;HPM_P2
2021/11/21 00:01:57;;;;;;;67.60;63.60;;;;;;;;;;4979557;28;20026;-74
2021/11/21 00:04:23;;;;;;;78.05;73.90;;;;;;;;;;4975319;28;20547;-73
2021/11/21 00:06:50;;;;;;;84.18;79.43;;;;;;;;;;4958475;28;20038;-75
2021/11/21 00:09:16;;;;;;;82.72;78.40;;;;;;;;;;4975038;28;20100;-74
2021/11/21 00:11:42;;;;;;;85.95;81.55;;;;;;;;;;4986574;28;20037;-74
2021/11/21 00:14:09;;;;;;;86.55;82.07;;;;;;;;;;4973474;28;20111;-74
2021/11/21 00:16:35;;;;;;;81.10;76.80;;;;;;;;;;4956098;28;20047;-74
2021/11/21 00:19:02;;;;;;;76.63;72.63;;;;;;;;;;4978856;28;20023;-74
2021/11/21 00:21:28;;;;;;;69.45;65.65;;;;;;;;;;4977246;28;20052;-74
2021/11/21 00:23:54;;;;;;;81.07;76.10;;;;;;;;;;4976636;28;20030;-73
2021/11/21 00:26:20;;;;;;;78.35;74.13;;;;;;;;;;4974361;28;20074;-74
2021/11/21 00:28:47;;;;;;;77.40;72.97;;;;;;;;;;4957767;28;20054;-74
2021/11/21 00:31:14;;;;;;;82.03;77.70;;;;;;;;;;4974087;28;20115;-74
2021/11/21 00:33:40;;;;;;;84.82;80.28;;;;;;;;;;4955358;28;20503;-75
2021/11/21 00:36:06;;;;;;;87.30;82.47;;;;;;;;;;4973801;28;20034;-74
2021/11/21 00:38:32;;;;;;;80.22;75.75;;;;;;;;;;4972686;28;20404;-74
2021/11/21 00:40:59;;;;;;;75.65;71.10;;;;;;;;;;4973113;28;20042;-74
2021/11/21 00:43:25;;;;;;;82.40;78.10;;;;;;;;;;4978951;28;20023;-74
2021/11/21 00:45:51;;;;;;;82.65;78.07;;;;;;;;;;4973608;28;20407;-74
2021/11/21 00:48:21;;;;;;;80.40;76.25;;;;;;;;;;4973021;28;20019;-74
2021/11/21 00:50:53;;;;;;;82.50;77.57;;;;;;;;;;4973516;28;20023;-74
2021/11/21 00:53:19;;;;;;;87.97;83.18;;;;;;;;;;4973238;28;20033;-74
2021/11/21 00:55:53;;;;;;;92.22;87.15;;;;;;;;;;4973078;28;20030;-74
2021/11/21 00:58:20;;;;;;;77.03;72.57;;;;;;;;;;4972406;28;20511;-74
2021/11/21 01:00:49;;;;;;;78.55;74.07;;;;;;;;;;4970542;28;20484;-74
2021/11/21 01:03:16;;;;;;;84.32;79.85;;;;;;;;;;4973097;28;20019;-74
2021/11/21 01:05:43;;;;;;;81.35;76.43;;;;;;;;;;4972666;28;20042;-74
2021/11/21 01:08:09;;;;;;;84.38;78.88;;;;;;;;;;4971722;28;20022;-74
2021/11/21 01:10:36;;;;;;;80.78;76.07;;;;;;;;;;4972804;28;20118;-74
2021/11/21 01:13:02;;;;;;;86.82;81.78;;;;;;;;;;4975366;28;20030;-74
2021/11/21 01:15:29;;;;;;;86.88;81.90;;;;;;;;;;4972494;28;20069;-74
2021/11/21 01:17:56;;;;;;;78.88;74.43;;;;;;;;;;4954183;28;20039;-74
2021/11/21 01:20:23;;;;;;;71.82;67.63;;;;;;;;;;4972538;28;20018;-74
2021/11/21 01:22:49;;;;;;;70.93;66.90;;;;;;;;;;4967696;28;20502;-73
2021/11/21 01:25:16;;;;;;;76.63;71.53;;;;;;;;;;4974190;28;20106;-74
2021/11/21 01:27:42;;;;;;;76.88;72.45;;;;;;;;;;4971642;28;20039;-73
2021/11/21 01:30:10;;;;;;;73.90;69.70;;;;;;;;;;4971918;28;20065;-74
2021/11/21 01:32:36;;;;;;;76.07;71.60;;;;;;;;;;4972492;28;20047;-73
2021/11/21 01:35:03;;;;;;;76.30;71.72;;;;;;;;;;4954649;28;20027;-74
2021/11/21 01:37:29;;;;;;;69.22;64.97;;;;;;;;;;4971523;28;20030;-73
2021/11/21 01:39:55;;;;;;;67.38;63.67;;;;;;;;;;4966666;28;20105;-73
2021/11/21 01:42:22;;;;;;;67.35;63.55;;;;;;;;;;4975137;28;20492;-73
2021/11/21 01:44:49;;;;;;;78.93;74.15;;;;;;;;;;4971401;28;20035;-72
2021/11/21 01:47:15;;;;;;;76.70;72.55;;;;;;;;;;4972082;28;20053;-73
2021/11/21 01:49:41;;;;;;;78.20;73.35;;;;;;;;;;4970286;28;20029;-72
2021/11/21 01:52:07;;;;;;;78.00;73.22;;;;;;;;;;4972789;28;20030;-73
2021/11/21 01:54:33;;;;;;;72.55;67.93;;;;;;;;;;4972220;28;20042;-72
2021/11/21 01:57:00;;;;;;;71.97;67.60;;;;;;;;;;4959862;28;20058;-71
2021/11/21 01:59:26;;;;;;;68.00;63.65;;;;;;;;;;4977509;28;20060;-71
2021/11/21 02:01:52;;;;;;;64.03;60.05;;;;;;;;;;4972472;28;20031;-70
2021/11/21 02:04:18;;;;;;;66.88;62.35;;;;;;;;;;4954026;28;20043;-71
2021/11/21 02:06:44;;;;;;;62.50;58.75;;;;;;;;;;4953682;28;20093;-71
2021/11/21 02:09:10;;;;;;;60.53;56.88;;;;;;;;;;4976566;28;20038;-71
2021/11/21 02:11:36;;;;;;;62.38;58.67;;;;;;;;;;4955002;28;20086;-71
2021/11/21 02:14:03;;;;;;;62.78;58.72;;;;;;;;;;4975520;28;20113;-71
2021/11/21 02:16:30;;;;;;;60.47;56.67;;;;;;;;;;4969718;28;20074;-71
2021/11/21 02:18:56;;;;;;;57.78;54.00;;;;;;;;;;4970293;28;20050;-71
2021/11/21 02:21:23;;;;;;;52.38;49.00;;;;;;;;;;4957925;28;20074;-73
2021/11/21 02:23:50;;;;;;;50.15;47.03;;;;;;;;;;4971324;28;20116;-72
2021/11/21 02:26:17;;;;;;;49.28;46.08;;;;;;;;;;4971423;28;20027;-72
2021/11/21 02:28:44;;;;;;;47.67;44.97;;;;;;;;;;4937231;28;20081;-74
2021/11/21 02:31:11;;;;;;;49.33;46.22;;;;;;;;;;4959121;28;20062;-73
2021/11/21 02:33:38;;;;;;;49.65;46.90;;;;;;;;;;4979136;28;20113;-73
2021/11/21 02:36:05;;;;;;;47.85;45.03;;;;;;;;;;4967522;28;20042;-72
2021/11/21 02:38:32;;;;;;;40.50;38.05;;;;;;;;;;4970090;28;20018;-74
2021/11/21 02:40:59;;;;;;;39.35;37.08;;;;;;;;;;4971806;28;20439;-73
2021/11/21 02:43:25;;;;;;;42.80;39.45;;;;;;;;;;4954353;28;20410;-73
2021/11/21 02:45:52;;;;;;;42.10;39.70;;;;;;;;;;4971498;28;20030;-73
2021/11/21 02:48:20;;;;;;;41.80;38.85;;;;;;;;;;4970178;28;20399;-73
2021/11/21 02:50:47;;;;;;;43.90;41.10;;;;;;;;;;4970797;28;20019;-72
2021/11/21 02:53:17;;;;;;;46.63;43.83;;;;;;;;;;4954681;28;20039;-72
2021/11/21 02:55:43;;;;;;;46.22;43.28;;;;;;;;;;4976499;28;20155;-72
2021/11/21 02:58:09;;;;;;;41.67;38.72;;;;;;;;;;4973477;28;20027;-72
2021/11/21 03:00:36;;;;;;;44.95;41.67;;;;;;;;;;4975255;28;20025;-72
2021/11/21 03:03:02;;;;;;;43.65;40.75;;;;;;;;;;4975308;28;20059;-73
2021/11/21 03:05:28;;;;;;;46.17;43.22;;;;;;;;;;4957920;28;20031;-72
2021/11/21 03:07:55;;;;;;;48.22;45.20;;;;;;;;;;4983002;28;20041;-72
2021/11/21 03:10:21;;;;;;;48.47;45.35;;;;;;;;;;4985064;28;20395;-72
2021/11/21 03:12:53;;;;;;;54.63;51.10;;;;;;;;;;4971544;28;20435;-71
2021/11/21 03:15:20;;;;;;;52.63;49.25;;;;;;;;;;4970152;28;20023;-72
2021/11/21 03:17:47;;;;;;;50.83;46.55;;;;;;;;;;4956009;28;20045;-72
2021/11/21 03:20:14;;;;;;;52.80;48.80;;;;;;;;;;4974814;28;20054;-72
2021/11/21 03:22:40;;;;;;;52.25;48.72;;;;;;;;;;4956610;28;20035;-72
2021/11/21 03:25:07;;;;;;;55.28;51.28;;;;;;;;;;4975493;28;20022;-73
2021/11/21 03:27:33;;;;;;;54.78;51.10;;;;;;;;;;4974710;28;20031;-72
2021/11/21 03:29:59;;;;;;;53.05;48.88;;;;;;;;;;4971586;28;20030;-72
2021/11/21 03:32:25;;;;;;;56.03;52.33;;;;;;;;;;4949421;28;20456;-72
2021/11/21 03:34:51;;;;;;;61.03;56.60;;;;;;;;;;4956416;28;20027;-72
2021/11/21 03:37:18;;;;;;;57.88;53.47;;;;;;;;;;4957560;28;20404;-72
2021/11/21 03:39:44;;;;;;;53.85;49.72;;;;;;;;;;4973466;28;20031;-73
2021/11/21 03:42:10;;;;;;;51.50;47.42;;;;;;;;;;4958222;28;20399;-72
2021/11/21 03:44:36;;;;;;;61.35;57.45;;;;;;;;;;4973928;28;20034;-71
2021/11/21 03:47:02;;;;;;;61.10;56.78;;;;;;;;;;4974614;28;20065;-71
2021/11/21 03:49:28;;;;;;;61.05;56.60;;;;;;;;;;4955272;28;20062;-71
2021/11/21 03:51:54;;;;;;;64.40;59.80;;;;;;;;;;4973852;28;20117;-70
2021/11/21 03:54:20;;;;;;;64.15;59.13;;;;;;;;;;4973086;28;20027;-70
2021/11/21 03:56:46;;;;;;;64.25;59.63;;;;;;;;;;4977045;28;20399;-70
2021/11/21 03:59:12;;;;;;;58.20;54.20;;;;;;;;;;4973976;28;20551;-71
2021/11/21 04:01:39;;;;;;;51.50;48.45;;;;;;;;;;4974065;28;20407;-71
2021/11/21 04:04:06;;;;;;;53.63;50.38;;;;;;;;;;4973949;28;20038;-71
2021/11/21 04:06:35;;;;;;;59.17;54.33;;;;;;;;;;4973544;28;20033;-71
2021/11/21 04:09:01;;;;;;;57.13;53.03;;;;;;;;;;4954756;28;20495;-70
2021/11/21 04:11:29;;;;;;;58.33;53.75;;;;;;;;;;4956149;28;20130;-71
2021/11/21 04:13:55;;;;;;;55.40;51.00;;;;;;;;;;4986846;28;20451;-71
2021/11/21 04:16:21;;;;;;;52.60;48.50;;;;;;;;;;4956382;28;20042;-71
2021/11/21 04:18:48;;;;;;;52.80;48.85;;;;;;;;;;4954442;28;20407;-72
2021/11/21 04:21:14;;;;;;;50.95;46.88;;;;;;;;;;4974056;28;20106;-72
2021/11/21 04:23:40;;;;;;;53.13;49.03;;;;;;;;;;4960088;28;20025;-71
2021/11/21 04:26:06;;;;;;;50.17;46.92;;;;;;;;;;4955958;28;20027;-72
2021/11/21 04:28:32;;;;;;;49.20;44.38;;;;;;;;;;4973663;28;20471;-71
2021/11/21 04:30:58;;;;;;;49.58;45.97;;;;;;;;;;4973730;28;20026;-71
2021/11/21 04:33:25;;;;;;;49.22;45.50;;;;;;;;;;4972529;28;20066;-71
2021/11/21 04:35:51;;;;;;;49.13;45.03;;;;;;;;;;4973404;28;20038;-71
2021/11/21 04:38:18;;;;;;;46.88;43.17;;;;;;;;;;4954252;28;20130;-70
2021/11/21 04:40:44;;;;;;;46.60;43.47;;;;;;;;;;4971110;28;20030;-71
2021/11/21 04:43:11;;;;;;;50.08;46.35;;;;;;;;;;4972770;28;20037;-70
2021/11/21 04:45:37;;;;;;;46.42;43.78;;;;;;;;;;4973592;28;20454;-71
2021/11/21 04:48:04;;;;;;;45.78;41.15;;;;;;;;;;4971802;28;20503;-71
2021/11/21 04:50:30;;;;;;;46.40;42.65;;;;;;;;;;4973634;28;20038;-72
2021/11/21 04:52:56;;;;;;;46.38;43.08;;;;;;;;;;4972916;28;20033;-72
2021/11/21 04:55:22;;;;;;;45.17;41.42;;;;;;;;;;4986060;28;20127;-71
2021/11/21 04:57:48;;;;;;;43.22;40.13;;;;;;;;;;4971644;28;20023;-72
2021/11/21 05:00:16;;;;;;;43.95;40.40;;;;;;;;;;4959217;28;20023;-72
2021/11/21 05:02:46;;;;;;;44.78;41.30;;;;;;;;;;4974455;28;20042;-71
2021/11/21 05:05:12;;;;;;;48.20;44.00;;;;;;;;;;4954628;28;20042;-72
2021/11/21 05:07:38;;;;;;;47.92;44.58;;;;;;;;;;4970258;28;20042;-72
2021/11/21 05:10:05;;;;;;;45.80;41.92;;;;;;;;;;4956401;28;20027;-72
2021/11/21 05:12:31;;;;;;;49.28;44.95;;;;;;;;;;4955046;28;20555;-72
2021/11/21 05:14:59;;;;;;;46.85;42.90;;;;;;;;;;4972180;28;20042;-71
2021/11/21 05:17:25;;;;;;;46.17;42.90;;;;;;;;;;4975485;28;20053;-71
2021/11/21 05:19:51;;;;;;;45.45;42.28;;;;;;;;;;4970695;28;20403;-72
2021/11/21 05:22:17;;;;;;;41.78;38.38;;;;;;;;;;4972290;28;20023;-71
2021/11/21 05:24:44;;;;;;;48.20;44.50;;;;;;;;;;4972048;28;20039;-71
2021/11/21 05:27:10;;;;;;;49.45;45.63;;;;;;;;;;4972439;28;20113;-72
2021/11/21 05:29:36;;;;;;;48.20;44.45;;;;;;;;;;4971125;28;20510;-72
2021/11/21 05:32:02;;;;;;;49.13;45.13;;;;;;;;;;4973275;28;20030;-72
2021/11/21 05:34:28;;;;;;;48.70;44.63;;;;;;;;;;4986213;28;20073;-72
2021/11/21 05:36:54;;;;;;;78.38;71.13;;;;;;;;;;4953761;28;20038;-73
2021/11/21 05:39:20;;;;;;;51.63;47.58;;;;;;;;;;4973545;28;20634;-72
2021/11/21 05:41:46;;;;;;;49.10;45.40;;;;;;;;;;4971979;28;20038;-73
2021/11/21 05:44:14;;;;;;;54.03;51.03;;;;;;;;;;4971633;28;20134;-72
2021/11/21 05:46:42;;;;;;;55.65;51.42;;;;;;;;;;4971639;28;20058;-72
2021/11/21 05:49:08;;;;;;;57.05;52.97;;;;;;;;;;4980239;28;20026;-72
2021/11/21 05:51:34;;;;;;;54.17;50.20;;;;;;;;;;4973512;28;20031;-71
2021/11/21 05:54:00;;;;;;;56.60;52.20;;;;;;;;;;4971617;28;20035;-72
2021/11/21 05:56:26;;;;;;;55.47;50.90;;;;;;;;;;4971764;28;20023;-71
2021/11/21 05:58:52;;;;;;;52.00;47.60;;;;;;;;;;4970633;28;20073;-71
2021/11/21 06:01:18;;;;;;;56.53;51.88;;;;;;;;;;4954501;28;20570;-71
2021/11/21 06:03:44;;;;;;;55.47;51.65;;;;;;;;;;4970969;28;20035;-70
2021/11/21 06:06:11;;;;;;;53.53;49.63;;;;;;;;;;4971542;28;20143;-71
2021/11/21 06:08:37;;;;;;;51.00;47.35;;;;;;;;;;4954136;28;20043;-71
2021/11/21 06:11:03;;;;;;;51.60;47.63;;;;;;;;;;4971591;28;20023;-71
2021/11/21 06:13:29;;;;;;;51.75;47.92;;;;;;;;;;4953421;28;20069;-71
2021/11/21 06:15:56;;;;;;;56.53;52.50;;;;;;;;;;4971024;28;20165;-71
2021/11/21 06:18:22;;;;;;;56.45;52.40;;;;;;;;;;4970692;28;20026;-71
2021/11/21 06:20:48;;;;;;;57.08;53.67;;;;;;;;;;4971454;28;20066;-72
2021/11/21 06:23:14;;;;;;;56.03;52.17;;;;;;;;;;4970890;28;20030;-71
2021/11/21 06:25:42;;;;;;;55.45;51.72;;;;;;;;;;4971668;28;20027;-72
2021/11/21 06:28:09;;;;;;;77.57;67.00;;;;;;;;;;4972306;28;20031;-71
2021/11/21 06:30:35;;;;;;;52.15;48.40;;;;;;;;;;4985451;28;20045;-71
2021/11/21 06:33:01;;;;;;;57.92;53.15;;;;;;;;;;4970686;28;20031;-72
2021/11/21 06:35:27;;;;;;;56.00;52.42;;;;;;;;;;4960859;28;20527;-71
2021/11/21 06:37:53;;;;;;;78.22;69.45;;;;;;;;;;4970872;28;20023;-71
2021/11/21 06:40:19;;;;;;;53.53;49.22;;;;;;;;;;4973968;28;20028;-72
2021/11/21 06:42:45;;;;;;;195.77;160.98;;;;;;;;;;4953125;28;20102;-76
2021/11/21 06:45:12;;;;;;;52.03;47.58;;;;;;;;;;4970410;28;20030;-71
2021/11/21 06:47:40;;;;;;;51.67;46.65;;;;;;;;;;4970116;28;20046;-71
2021/11/21 06:50:08;;;;;;;53.95;50.13;;;;;;;;;;4971352;28;20019;-71
2021/11/21 06:52:34;;;;;;;56.13;52.03;;;;;;;;;;4953285;28;20030;-71
2021/11/21 06:55:01;;;;;;;50.58;46.83;;;;;;;;;;4955616;28;20044;-71
2021/11/21 06:57:28;;;;;;;52.40;48.75;;;;;;;;;;4970846;28;20063;-71
2021/11/21 06:59:54;;;;;;;52.38;48.92;;;;;;;;;;4966145;28;20070;-71
2021/11/21 07:02:20;;;;;;;50.95;47.60;;;;;;;;;;4971012;28;20035;-71
2021/11/21 07:04:48;;;;;;;49.30;45.53;;;;;;;;;;4972136;28;20102;-72
2021/11/21 07:07:14;;;;;;;50.47;45.85;;;;;;;;;;4953228;28;20034;-71
2021/11/21 07:09:41;;;;;;;49.30;45.65;;;;;;;;;;4976150;28;20377;-71
2021/11/21 07:12:07;;;;;;;50.70;46.75;;;;;;;;;;4971040;28;20549;-72
2021/11/21 07:14:33;;;;;;;52.83;48.40;;;;;;;;;;4953082;28;20042;-71
2021/11/21 07:16:59;;;;;;;48.50;45.15;;;;;;;;;;4970344;28;20093;-72
2021/11/21 07:19:26;;;;;;;51.50;48.17;;;;;;;;;;4968405;28;20050;-72
2021/11/21 07:21:52;;;;;;;44.95;41.75;;;;;;;;;;4971993;28;20026;-72
2021/11/21 07:24:18;;;;;;;53.30;49.08;;;;;;;;;;4953119;28;20039;-71
2021/11/21 07:26:44;;;;;;;56.55;51.63;;;;;;;;;;4962275;28;20035;-70
2021/11/21 07:29:10;;;;;;;49.10;45.55;;;;;;;;;;4969742;28;20050;-70
2021/11/21 07:31:36;;;;;;;53.28;49.03;;;;;;;;;;4970087;28;20058;-70
2021/11/21 07:34:03;;;;;;;50.83;47.00;;;;;;;;;;4971069;28;20030;-70
2021/11/21 07:36:29;;;;;;;52.30;48.03;;;;;;;;;;4953079;28;20030;-71
2021/11/21 07:38:55;;;;;;;57.13;52.53;;;;;;;;;;4970240;28;20076;-71
2021/11/21 07:41:21;;;;;;;57.17;53.03;;;;;;;;;;4969723;28;20027;-71
2021/11/21 07:43:47;;;;;;;68.47;63.97;;;;;;;;;;4972681;28;20158;-71
2021/11/21 07:46:13;;;;;;;65.63;61.40;;;;;;;;;;4963006;28;20173;-71
2021/11/21 07:48:40;;;;;;;62.83;58.25;;;;;;;;;;4972860;28;20050;-70
2021/11/21 07:51:06;;;;;;;59.05;55.33;;;;;;;;;;4974645;28;20019;-70
2021/11/21 07:53:33;;;;;;;59.83;56.00;;;;;;;;;;4957480;28;20102;-71
2021/11/21 07:55:59;;;;;;;57.00;52.95;;;;;;;;;;5138997;23;20109;-74
2021/11/21 07:58:25;;;;;;;52.90;49.42;;;;;;;;;;4968094;28;20066;-74
2021/11/21 08:00:52;;;;;;;52.22;48.72;;;;;;;;;;4971513;28;20477;-74
2021/11/21 08:03:18;;;;;;;54.05;50.40;;;;;;;;;;4972669;28;20142;-74
2021/11/21 08:05:44;;;;;;;50.97;47.53;;;;;;;;;;4974277;28;20093;-74
2021/11/21 08:08:10;;;;;;;52.92;49.22;;;;;;;;;;4970394;28;20023;-73
2021/11/21 08:10:36;;;;;;;60.22;56.60;;;;;;;;;;4971780;28;20027;-74
2021/11/21 08:13:03;;;;;;;57.15;53.63;;;;;;;;;;4972734;28;20421;-74
2021/11/21 08:15:30;;;;;;;64.53;59.63;;;;;;;;;;4974388;28;20031;-74
2021/11/21 08:17:56;;;;;;;67.18;62.63;;;;;;;;;;4972206;28;20027;-74
2021/11/21 08:20:22;;;;;;;62.90;58.70;;;;;;;;;;4972695;28;20023;-75
2021/11/21 08:22:48;;;;;;;59.95;55.90;;;;;;;;;;4969369;28;20485;-74
2021/11/21 08:25:15;;;;;;;60.75;56.45;;;;;;;;;;4969705;28;20061;-75
2021/11/21 08:27:41;;;;;;;62.15;57.88;;;;;;;;;;4969471;28;20135;-74
2021/11/21 08:30:08;;;;;;;64.68;59.67;;;;;;;;;;4975827;28;20035;-75
2021/11/21 08:32:34;;;;;;;63.50;58.47;;;;;;;;;;4972671;28;20053;-74
2021/11/21 08:35:01;;;;;;;60.45;56.15;;;;;;;;;;4978603;28;20042;-76
2021/11/21 08:37:27;;;;;;;61.42;56.40;;;;;;;;;;4971574;28;20026;-77
2021/11/21 08:39:54;;;;;;;63.03;58.42;;;;;;;;;;4965116;28;20026;-76
2021/11/21 08:42:20;;;;;;;62.13;58.20;;;;;;;;;;4979789;28;20046;-75
2021/11/21 08:44:46;;;;;;;69.13;64.53;;;;;;;;;;4972808;28;20057;-75
2021/11/21 08:47:14;;;;;;;62.08;57.50;;;;;;;;;;4972204;28;20034;-75
2021/11/21 08:49:40;;;;;;;60.92;56.78;;;;;;;;;;4970882;28;20081;-76
2021/11/21 08:52:06;;;;;;;64.95;59.83;;;;;;;;;;4973356;28;20606;-75
2021/11/21 08:54:32;;;;;;;62.25;57.83;;;;;;;;;;4967678;28;20081;-76
2021/11/21 08:56:59;;;;;;;62.75;58.38;;;;;;;;;;4969997;28;20050;-75
2021/11/21 08:59:25;;;;;;;62.25;58.00;;;;;;;;;;4973483;28;20027;-77
2021/11/21 09:01:51;;;;;;;62.72;58.17;;;;;;;;;;4975417;28;20050;-77
2021/11/21 09:04:17;;;;;;;63.15;58.35;;;;;;;;;;4969306;28;20031;-76
2021/11/21 09:06:44;;;;;;;60.40;56.40;;;;;;;;;;4976074;28;20117;-77
2021/11/21 09:09:10;;;;;;;61.97;57.53;;;;;;;;;;4971111;28;20114;-77
2021/11/21 09:11:36;;;;;;;60.63;56.67;;;;;;;;;;4977336;28;20030;-78
2021/11/21 09:14:03;;;;;;;61.20;56.95;;;;;;;;;;4967859;28;20109;-78
2021/11/21 09:16:30;;;;;;;59.35;55.60;;;;;;;;;;4973972;28;20034;-78
2021/11/21 09:18:56;;;;;;;59.38;55.78;;;;;;;;;;4982658;28;20026;-77
2021/11/21 09:21:22;;;;;;;60.15;55.90;;;;;;;;;;4971003;28;20118;-76
2021/11/21 09:23:48;;;;;;;58.58;54.45;;;;;;;;;;4969674;28;20015;-77
2021/11/21 09:26:15;;;;;;;58.67;54.85;;;;;;;;;;4966147;28;20027;-77
2021/11/21 09:28:41;;;;;;;60.08;55.63;;;;;;;;;;4967234;28;20034;-77
2021/11/21 09:31:07;;;;;;;61.38;56.80;;;;;;;;;;4968874;28;20027;-77
2021/11/21 09:33:34;;;;;;;62.65;57.75;;;;;;;;;;4965892;28;20401;-78
2021/11/21 09:36:00;;;;;;;61.78;57.67;;;;;;;;;;4970289;28;20025;-77
2021/11/21 09:38:27;;;;;;;65.72;61.60;;;;;;;;;;4964228;28;20026;-76
2021/11/21 09:40:53;;;;;;;61.90;57.75;;;;;;;;;;4965076;28;20030;-78
2021/11/21 09:43:19;;;;;;;67.45;63.00;;;;;;;;;;4971480;28;20170;-79
2021/11/21 09:45:46;;;;;;;62.42;58.42;;;;;;;;;;4969281;28;20493;-79
2021/11/21 09:48:12;;;;;;;62.70;58.83;;;;;;;;;;4968666;28;20390;-79
2021/11/21 09:50:41;;;;;;;62.17;58.15;;;;;;;;;;4976997;28;20042;-79
2021/11/21 09:53:08;;;;;;;58.28;54.53;;;;;;;;;;4970113;28;20035;-82
2021/11/21 09:55:34;;;;;;;66.50;61.03;;;;;;;;;;4966358;28;20027;-78
2021/11/21 09:58:00;;;;;;;65.90;61.42;;;;;;;;;;4963942;28;20019;-79
2021/11/21 10:00:27;;;;;;;66.35;61.88;;;;;;;;;;4967007;28;20027;-79
2021/11/21 10:03:07;;;;;;;65.22;60.40;;;;;;;;;;4969594;28;20510;-79
2021/11/21 10:05:35;;;;;;;62.95;58.83;;;;;;;;;;4967609;28;20061;-80
2021/11/21 10:08:04;;;;;;;60.20;56.30;;;;;;;;;;4965184;28;20026;-81
2021/11/21 10:10:34;;;;;;;59.50;55.78;;;;;;;;;;4969089;28;20696;-81
2021/11/21 10:13:00;;;;;;;63.05;59.45;;;;;;;;;;4965081;28;20038;-80
2021/11/21 10:15:26;;;;;;;58.38;54.83;;;;;;;;;;4965326;28;20147;-82
2021/11/21 10:17:54;;;;;;;64.03;60.65;;;;;;;;;;4963687;28;20019;-79
2021/11/21 10:20:22;;;;;;;65.47;61.35;;;;;;;;;;4967164;28;20022;-83
2021/11/21 10:22:51;;;;;;;62.47;58.80;;;;;;;;;;4968371;28;20440;-80
2021/11/21 10:25:32;;;;;;;62.95;59.38;;;;;;;;;;4952741;28;20450;-81
2021/11/21 10:28:17;;;;;;;59.05;55.13;;;;;;;;;;4964196;28;20217;-81
2021/11/21 10:31:03;;;;;;;56.38;52.53;;;;;;;;;;4966070;28;20031;-81
2021/11/21 10:33:32;;;;;;;55.08;50.65;;;;;;;;;;4940618;28;20035;-80
2021/11/21 10:36:18;;;;;;;51.10;47.47;;;;;;;;;;4950838;28;20043;-80
2021/11/21 10:38:44;;;;;;;54.35;50.45;;;;;;;;;;4944784;28;20035;-79
2021/11/21 10:41:15;;;;;;;55.10;50.75;;;;;;;;;;4966724;28;20031;-82
2021/11/21 10:43:46;;;;;;;62.80;58.95;;;;;;;;;;4965516;28;20030;-80
2021/11/21 10:46:26;;;;;;;64.68;59.10;;;;;;;;;;4950756;28;20030;-80
2021/11/21 10:48:52;;;;;;;64.70;59.97;;;;;;;;;;4965743;28;20497;-81
2021/11/21 10:51:19;;;;;;;67.72;63.40;;;;;;;;;;4966668;28;20039;-83
2021/11/21 10:53:46;;;;;;;62.67;58.90;;;;;;;;;;4949084;28;20031;-82
2021/11/21 10:56:12;;;;;;;61.40;58.13;;;;;;;;;;4953525;28;20097;-82
2021/11/21 10:58:43;;;;;;;60.33;55.75;;;;;;;;;;4962410;28;20111;-82
2021/11/21 11:01:18;;;;;;;64.93;60.97;;;;;;;;;;4969701;28;20030;-81
2021/11/21 11:03:46;;;;;;;68.70;64.07;;;;;;;;;;4971436;28;20104;-82
2021/11/21 11:06:28;;;;;;;72.88;68.60;;;;;;;;;;4971704;28;20038;-82
2021/11/21 11:09:00;;;;;;;60.75;56.80;;;;;;;;;;4963349;28;20031;-82
2021/11/21 11:11:26;;;;;;;58.83;55.05;;;;;;;;;;4958170;28;20067;-81
2021/11/21 11:13:52;;;;;;;57.28;53.88;;;;;;;;;;4963530;28;20472;-80
2021/11/21 11:16:19;;;;;;;54.90;51.17;;;;;;;;;;4958621;28;20035;-80
2021/11/21 11:18:46;;;;;;;54.08;50.65;;;;;;;;;;4970078;28;20018;-79
2021/11/21 11:21:14;;;;;;;56.53;52.65;;;;;;;;;;4972204;28;20030;-82
2021/11/21 11:23:41;;;;;;;57.20;53.15;;;;;;;;;;4960761;28;20139;-81
2021/11/21 11:26:07;;;;;;;55.30;51.33;;;;;;;;;;4973298;28;20034;-80
2021/11/21 11:28:34;;;;;;;53.53;49.55;;;;;;;;;;4972664;28;20422;-82
2021/11/21 11:31:01;;;;;;;55.40;51.92;;;;;;;;;;4971967;28;20023;-83
2021/11/21 11:33:37;;;;;;;60.28;56.63;;;;;;;;;;4971965;28;20110;-82
2021/11/21 11:36:10;;;;;;;56.90;52.80;;;;;;;;;;4974458;28;20033;-83
2021/11/21 11:38:36;;;;;;;53.40;49.75;;;;;;;;;;4970399;28;20050;-80
2021/11/21 11:41:04;;;;;;;54.58;50.70;;;;;;;;;;4971341;28;20026;-80
2021/11/21 11:43:38;;;;;;;51.10;47.60;;;;;;;;;;4974355;28;20390;-80
2021/11/21 11:46:09;;;;;;;52.88;49.78;;;;;;;;;;4974479;28;20027;-81
2021/11/21 11:48:39;;;;;;;54.47;51.37;;;;;;;;;;4971885;28;20061;-79
2021/11/21 11:51:10;;;;;;;55.67;51.08;;;;;;;;;;4978715;28;20497;-80
2021/11/21 11:53:37;;;;;;;52.30;48.30;;;;;;;;;;4974763;28;20603;-78
2021/11/21 11:56:09;;;;;;;51.95;49.00;;;;;;;;;;4977193;28;20047;-79
2021/11/21 11:58:46;;;;;;;49.65;46.72;;;;;;;;;;4971265;28;20035;-80
2021/11/21 12:01:12;;;;;;;49.78;46.10;;;;;;;;;;4970856;28;20043;-76
2021/11/21 12:03:39;;;;;;;52.22;49.30;;;;;;;;;;4971903;28;20457;-79
2021/11/21 12:06:06;;;;;;;50.40;47.17;;;;;;;;;;4983622;28;20041;-79
2021/11/21 12:08:32;;;;;;;53.10;49.58;;;;;;;;;;4978632;28;20030;-77
2021/11/21 12:10:58;;;;;;;50.83;46.80;;;;;;;;;;4973415;28;20461;-78
2021/11/21 12:13:29;;;;;;;48.53;44.17;;;;;;;;;;4975984;28;20425;-77
2021/11/21 12:16:00;;;;;;;48.22;44.25;;;;;;;;;;4967599;28;20395;-74
2021/11/21 12:18:44;;;;;;;51.15;47.35;;;;;;;;;;4969789;28;20026;-76
2021/11/21 12:21:11;;;;;;;49.42;46.05;;;;;;;;;;4967619;28;20684;-77
2021/11/21 12:23:43;;;;;;;46.60;42.80;;;;;;;;;;4971022;28;20027;-78
2021/11/21 12:26:28;;;;;;;52.95;49.45;;;;;;;;;;4972522;28;20026;-77
2021/11/21 12:29:02;;;;;;;51.25;47.67;;;;;;;;;;4953165;28;20035;-77
2021/11/21 12:31:29;;;;;;;52.42;48.50;;;;;;;;;;4971262;28;20039;-77
2021/11/21 12:34:15;;;;;;;52.53;49.05;;;;;;;;;;4971474;28;20026;-77
2021/11/21 12:37:00;;;;;;;50.72;46.80;;;;;;;;;;4950824;28;20057;-77
2021/11/21 12:39:30;;;;;;;47.53;44.03;;;;;;;;;;4965638;28;20026;-77
2021/11/21 12:42:00;;;;;;;50.58;46.72;;;;;;;;;;4971100;28;20106;-77
2021/11/21 12:44:26;;;;;;;53.75;49.10;;;;;;;;;;4971996;28;20111;-78
2021/11/21 12:46:58;;;;;;;52.38;48.38;;;;;;;;;;4967907;28;20061;-77
2021/11/21 12:49:24;;;;;;;49.65;45.63;;;;;;;;;;4965127;28;20043;-77
2021/11/21 12:52:06;;;;;;;51.55;47.42;;;;;;;;;;4968704;28;20125;-78
2021/11/21 12:54:32;;;;;;;57.08;52.65;;;;;;;;;;4970790;28;20058;-81
2021/11/21 12:56:58;;;;;;;56.05;51.78;;;;;;;;;;4970889;28;20046;-79
2021/11/21 12:59:43;;;;;;;57.38;52.03;;;;;;;;;;4968811;28;20099;-80
2021/11/21 13:02:12;;;;;;;55.13;50.55;;;;;;;;;;4974824;28;20038;-81
2021/11/21 13:04:52;;;;;;;63.53;59.28;;;;;;;;;;4972240;28;20154;-81
2021/11/21 13:07:21;;;;;;;60.75;56.08;;;;;;;;;;4972502;28;20065;-78
2021/11/21 13:09:56;;;;;;;56.30;52.55;;;;;;;;;;4969283;28;20026;-78
2021/11/21 13:12:26;;;;;;;61.45;57.05;;;;;;;;;;4964289;28;20034;-79
2021/11/21 13:15:12;;;;;;;63.72;59.25;;;;;;;;;;4971617;28;20038;-80
2021/11/21 13:17:38;;;;;;;65.63;60.03;;;;;;;;;;4968849;28;20022;-79
2021/11/21 13:20:06;;;;;;;65.68;61.30;;;;;;;;;;4968741;28;20030;-80
2021/11/21 13:22:53;;;;;;;60.03;55.55;;;;;;;;;;4971648;28;20035;-78
2021/11/21 13:25:39;;;;;;;64.35;60.15;;;;;;;;;;4972112;28;20038;-82
2021/11/21 13:28:24;;;;;;;58.67;54.50;;;;;;;;;;4977519;28;20306;-82
2021/11/21 13:30:51;;;;;;;59.00;54.50;;;;;;;;;;4967780;28;20073;-78
2021/11/21 13:33:18;;;;;;;56.60;52.22;;;;;;;;;;4970460;28;20085;-80
2021/11/21 13:35:44;;;;;;;57.53;53.85;;;;;;;;;;4969075;28;20319;-80
2021/11/21 13:38:11;;;;;;;61.65;57.33;;;;;;;;;;4975770;28;20031;-78
2021/11/21 13:40:40;;;;;;;56.28;51.78;;;;;;;;;;4946074;28;20039;-79
2021/11/21 13:43:08;;;;;;;56.00;51.45;;;;;;;;;;4970191;28;20026;-80
2021/11/21 13:45:34;;;;;;;58.45;54.00;;;;;;;;;;4971085;28;20114;-77
2021/11/21 13:48:00;;;;;;;58.10;53.40;;;;;;;;;;4966076;28;20288;-76
2021/11/21 13:50:28;;;;;;;58.67;54.45;;;;;;;;;;4968408;28;20101;-75
2021/11/21 13:52:55;;;;;;;55.72;52.03;;;;;;;;;;4970882;28;20184;-77
2021/11/21 13:55:23;;;;;;;56.60;53.15;;;;;;;;;;4970391;28;20035;-77
2021/11/21 13:57:49;;;;;;;54.85;51.90;;;;;;;;;;4965688;28;20030;-78
2021/11/21 14:00:18;;;;;;;52.28;48.97;;;;;;;;;;4970120;28;20015;-78
2021/11/21 14:02:46;;;;;;;55.78;52.78;;;;;;;;;;4968555;28;20333;-77
2021/11/21 14:05:14;;;;;;;56.75;53.63;;;;;;;;;;4968064;28;20023;-78
2021/11/21 14:07:56;;;;;;;58.67;55.38;;;;;;;;;;4950763;28;20070;-78
2021/11/21 14:10:28;;;;;;;56.65;53.03;;;;;;;;;;4965478;28;20034;-79
2021/11/21 14:13:10;;;;;;;60.40;56.97;;;;;;;;;;4969231;28;20092;-79
2021/11/21 14:15:36;;;;;;;63.15;58.25;;;;;;;;;;4969117;28;20031;-79
2021/11/21 14:18:03;;;;;;;63.35;58.40;;;;;;;;;;4966778;28;20011;-78
2021/11/21 14:20:32;;;;;;;66.75;60.25;;;;;;;;;;4968844;28;20031;-79